Time;durP1;ratioP1;P1;durP2;ratioP2;P2;SDS_P1;SDS_P2;PMS_P1;PMS_P2;Temp;Humidity;BMP_temperature;BMP_pressure;BME280_temperature;BME280_humidity;BME280_pressure;Samples;Min_cycle;Max_cycle;Signal;HPM_P1;HPM_P2
2022/04/13 00:01:31;;;;;;;15.48;8.38;;;;;;;5.21;52.08;101489.67;1687328;83;20941;-77
2022/04/13 00:03:57;;;;;;;15.85;8.95;;;;;;;5.20;52.11;101493.08;1687452;84;20964;-77
2022/04/13 00:06:23;;;;;;;16.00;8.77;;;;;;;5.19;52.16;101491.80;1711098;83;20866;-77
2022/04/13 00:08:50;;;;;;;13.38;8.08;;;;;;;5.16;52.20;101491.31;1716167;82;20889;-77
2022/04/13 00:11:18;;;;;;;15.50;9.60;;;;;;;5.14;52.20;101487.86;1716336;83;20886;-77
2022/04/13 00:13:44;;;;;;;13.38;9.93;;;;;;;5.12;52.23;101486.97;1716288;83;20894;-77
2022/04/13 00:16:10;;;;;;;18.00;10.30;;;;;;;5.12;52.26;101484.81;1705610;81;20921;-77
2022/04/13 00:18:36;;;;;;;17.37;10.20;;;;;;;5.10;52.29;101486.06;1695907;82;20909;-77
2022/04/13 00:21:02;;;;;;;20.30;11.03;;;;;;;5.08;52.34;101476.62;1734228;82;20933;-77
2022/04/13 00:23:28;;;;;;;20.23;10.45;;;;;;;5.07;52.34;101477.03;1685953;83;21073;-77
2022/04/13 00:53:52;;;;;;;15.80;8.65;;;;;;;4.51;52.70;101470.73;1701125;83;21640;-77
2022/04/13 00:56:27;;;;;;;15.65;9.30;;;;;;;4.43;52.74;101474.39;1708366;82;21088;-77
2022/04/13 00:58:57;;;;;;;13.98;9.48;;;;;;;4.41;52.81;101473.91;1699522;83;21144;-77
2022/04/13 01:01:25;;;;;;;18.52;9.68;;;;;;;4.43;52.88;101476.95;1722723;82;21035;-77
2022/04/13 01:03:52;;;;;;;16.40;10.13;;;;;;;4.40;52.85;101473.45;1714326;83;21300;-77
2022/04/13 01:06:20;;;;;;;15.75;9.63;;;;;;;4.38;52.88;101479.82;1686150;83;20949;-77
2022/04/13 01:08:50;;;;;;;20.50;10.38;;;;;;;4.37;52.92;101470.41;1683415;83;21082;-78
2022/04/13 01:11:17;;;;;;;15.38;9.95;;;;;;;4.35;52.92;101468.23;1730899;81;21062;-77
2022/04/13 01:13:44;;;;;;;17.60;10.35;;;;;;;4.35;53.02;101475.05;1738400;82;21038;-77
2022/04/13 01:16:10;;;;;;;18.10;10.35;;;;;;;4.33;53.01;101475.02;1731862;81;21079;-78
2022/04/13 01:18:37;;;;;;;16.30;10.45;;;;;;;4.32;53.04;101472.00;1708238;83;21074;-77
2022/04/13 01:21:12;;;;;;;20.35;11.35;;;;;;;4.29;53.08;101466.39;1717964;81;21052;-77
2022/04/13 01:23:34;;;;;;;18.85;11.18;;;;;;;4.28;53.11;101470.20;1718388;82;21056;-77
2022/04/13 01:26:00;;;;;;;19.73;10.83;;;;;;;4.26;53.13;101462.89;1746539;81;21062;-76
2022/04/13 01:28:26;;;;;;;15.93;10.50;;;;;;;4.12;53.36;101458.77;1766359;81;20866;-77
2022/04/13 01:30:52;;;;;;;20.33;10.47;;;;;;;4.12;53.36;101458.77;1730686;81;21478;-77
2022/04/13 01:33:18;;;;;;;18.67;11.00;;;;;;;4.21;53.25;101478.56;1729601;81;20929;-77
2022/04/13 01:35:44;;;;;;;18.33;9.83;;;;;;;4.19;53.27;101472.12;1727150;81;20972;-77
2022/04/13 01:38:10;;;;;;;18.77;10.95;;;;;;;4.20;53.34;101471.71;1736040;81;21052;-77
2022/04/13 01:40:36;;;;;;;17.33;10.07;;;;;;;4.19;53.37;101471.26;1736215;82;20972;-77
2022/04/13 01:43:02;;;;;;;16.87;9.43;;;;;;;4.15;53.42;101468.21;1719571;82;21031;-77
2022/04/13 01:45:29;;;;;;;17.83;9.33;;;;;;;4.12;53.45;101471.98;1710061;81;21067;-77
2022/04/13 01:47:57;;;;;;;15.25;9.20;;;;;;;4.09;53.47;101466.37;1712521;82;21354;-77
2022/04/13 01:50:23;;;;;;;12.87;8.93;;;;;;;4.10;53.49;101474.91;1706745;84;21027;-77
2022/04/13 01:52:50;;;;;;;11.55;8.73;;;;;;;4.07;53.53;101476.98;1717149;81;21079;-77
2022/04/13 01:55:16;;;;;;;13.70;8.88;;;;;;;4.04;53.57;101476.91;1759574;81;21425;-75
2022/04/13 01:57:42;;;;;;;12.90;9.15;;;;;;;4.04;53.64;101474.34;1714633;82;21539;-75
2022/04/13 02:00:13;;;;;;;15.30;8.95;;;;;;;4.05;53.66;101482.48;1757457;81;21040;-75
2022/04/13 02:02:39;;;;;;;13.72;8.45;;;;;;;4.05;53.69;101477.36;1733150;81;20948;-75
2022/04/13 02:05:06;;;;;;;12.43;9.03;;;;;;;4.05;53.74;101477.77;1712776;82;20964;-75
2022/04/13 02:07:32;;;;;;;;;;;;;;;4.05;53.78;101470.09;1665209;84;20941;-75
2022/04/13 02:09:58;;;;;;;;;;;;;;;4.06;54.01;101475.25;1714064;81;20119;-75
2022/04/13 02:12:25;;;;;;;15.35;8.88;;;;;;;4.08;54.02;101468.89;1737310;81;20192;-76
2022/04/13 02:14:51;;;;;;;13.68;8.28;;;;;;;4.08;53.85;101459.52;1708794;83;21345;-76
2022/04/13 02:17:19;;;;;;;14.87;9.05;;;;;;;4.05;53.83;101470.96;1729981;81;20885;-76
2022/04/13 02:19:45;;;;;;;11.48;8.68;;;;;;;4.06;53.87;101461.17;1727456;83;20948;-76
2022/04/13 02:22:11;;;;;;;13.48;8.90;;;;;;;4.08;53.89;101464.64;1721498;81;20974;-76
2022/04/13 02:24:39;;;;;;;14.95;8.80;;;;;;;4.12;53.90;101475.81;1700651;81;21019;-76
2022/04/13 02:27:07;;;;;;;14.68;8.55;;;;;;;4.16;53.95;101476.34;1753705;81;21448;-76
2022/04/13 02:29:34;;;;;;;10.85;8.43;;;;;;;4.20;53.92;101480.25;1722915;83;21068;-76
2022/04/13 02:32:01;;;;;;;;;;;;;;;4.22;53.91;101484.13;1730743;81;21520;-76
2022/04/13 02:34:27;;;;;;;13.70;8.15;;;;;;;4.24;54.11;101483.75;1747730;81;20217;-76
2022/04/13 02:36:53;;;;;;;11.05;8.10;;;;;;;4.29;54.02;101480.89;1753832;81;21040;-76
2022/04/13 02:39:19;;;;;;;18.30;9.33;;;;;;;4.37;54.04;101472.97;1737166;81;21003;-76
2022/04/13 02:41:45;;;;;;;14.40;9.03;;;;;;;4.35;54.05;101468.23;1724042;83;21712;-76
2022/04/13 02:44:11;;;;;;;17.27;9.90;;;;;;;4.45;54.00;101482.97;1725832;82;20898;-76
2022/04/13 02:46:38;;;;;;;11.05;8.35;;;;;;;4.47;54.05;101481.73;1740354;81;21044;-76
2022/04/13 02:49:04;;;;;;;13.43;8.73;;;;;;;4.49;54.04;101478.38;1713895;81;21103;-77
2022/04/13 02:51:30;;;;;;;15.63;8.85;;;;;;;4.50;54.09;101480.10;1725801;82;21590;-76
2022/04/13 02:53:58;;;;;;;15.10;9.08;;;;;;;4.53;54.13;101480.59;1725438;83;20976;-76
2022/04/13 02:56:25;;;;;;;12.67;8.40;;;;;;;4.55;54.14;101484.91;1708606;82;20965;-76
2022/04/13 02:58:51;;;;;;;15.75;9.08;;;;;;;4.56;54.12;101489.20;1723431;81;21633;-76
2022/04/13 03:01:17;;;;;;;14.53;9.53;;;;;;;4.57;54.13;101484.53;1700919;83;21056;-76
2022/04/13 03:03:44;;;;;;;13.05;9.13;;;;;;;4.57;54.17;101479.41;1700547;83;21547;-76
2022/04/13 03:06:10;;;;;;;14.03;9.77;;;;;;;4.59;54.19;101470.06;1721292;81;20983;-76
2022/04/13 03:08:36;;;;;;;12.57;8.83;;;;;;;4.59;54.18;101471.77;1726088;83;21260;-76
2022/04/13 03:11:02;;;;;;;12.55;9.00;;;;;;;4.61;54.22;101468.82;1731015;82;20925;-76
2022/04/13 03:13:32;;;;;;;13.93;9.50;;;;;;;4.61;54.28;101468.41;1710289;81;21638;-76
2022/04/13 03:15:58;;;;;;;15.00;9.47;;;;;;;4.63;54.25;101468.02;1721181;81;21011;-76
2022/04/13 03:18:24;;;;;;;17.43;8.87;;;;;;;4.63;54.29;101469.30;1715614;81;20896;-76
2022/04/13 03:20:50;;;;;;;12.35;8.85;;;;;;;4.63;54.27;101468.02;1730427;81;20983;-76
2022/04/13 03:23:16;;;;;;;13.55;8.90;;;;;;;4.62;54.30;101475.26;1634400;85;21064;-76
2022/04/13 03:25:43;;;;;;;;;;;;;;;4.60;54.29;101471.80;1672672;84;21112;-77
2022/04/13 03:28:09;;;;;;;17.65;9.88;;;;;;;4.57;54.40;101477.27;1665051;84;20187;-77
2022/04/13 03:30:35;;;;;;;15.10;10.20;;;;;;;4.54;54.30;101477.20;1670186;84;21086;-77
2022/04/13 03:33:02;;;;;;;19.33;11.23;;;;;;;4.50;54.34;101476.27;1706463;84;20907;-77
2022/04/13 03:35:28;;;;;;;16.75;10.55;;;;;;;4.48;54.36;101475.36;1713850;82;27504;-77
2022/04/13 03:37:54;;;;;;;14.80;10.13;;;;;;;4.45;54.38;101477.85;1692924;83;21387;-77
2022/04/13 03:40:20;;;;;;;16.47;10.60;;;;;;;4.44;54.42;101476.54;1726846;81;21689;-77
2022/04/13 03:42:46;;;;;;;16.37;9.30;;;;;;;4.42;54.44;101476.92;1717112;82;21506;-77
2022/04/13 03:45:13;;;;;;;15.50;10.20;;;;;;;4.38;54.41;101471.27;1718560;81;21027;-77
2022/04/13 03:47:40;;;;;;;;;;;;;;;4.31;54.40;101476.25;1735039;81;21106;-76
2022/04/13 03:50:08;;;;;;;11.78;8.13;;;;;;;4.25;54.58;101469.71;1727568;81;20200;-76
2022/04/13 03:52:36;;;;;;;14.68;9.55;;;;;;;4.20;54.46;101464.03;1722065;82;21705;-76
2022/04/13 03:55:06;;;;;;;13.75;9.18;;;;;;;4.18;54.53;101473.37;1670589;85;21711;-77
2022/04/13 03:57:32;;;;;;;15.00;9.40;;;;;;;4.14;54.52;101465.20;1728348;81;21030;-77
2022/04/13 03:59:58;;;;;;;17.12;9.03;;;;;;;4.10;54.57;101472.35;1725543;81;21550;-78
2022/04/13 04:02:24;;;;;;;16.47;10.13;;;;;;;4.06;54.58;101472.69;1720644;81;20902;-74
2022/04/13 04:04:50;;;;;;;13.47;9.53;;;;;;;4.03;54.60;101471.75;1703469;82;21872;-76
2022/04/13 04:07:17;;;;;;;12.43;9.10;;;;;;;3.99;54.63;101479.77;1702826;81;21376;-77
2022/04/13 04:09:44;;;;;;;13.45;9.00;;;;;;;3.96;54.67;101476.72;1692126;83;22200;-76
2022/04/13 04:12:10;;;;;;;20.05;8.95;;;;;;;3.97;54.70;101480.14;1668848;83;21490;-77
2022/04/13 04:14:37;;;;;;;15.98;10.82;;;;;;;3.94;54.70;101478.38;1631808;86;21941;-77
2022/04/13 04:17:03;;;;;;;14.60;10.68;;;;;;;3.93;54.72;101484.31;1672814;84;21531;-76
2022/04/13 04:19:30;;;;;;;15.15;8.53;;;;;;;3.93;54.74;101479.61;1674199;84;21366;-77
2022/04/13 04:21:56;;;;;;;15.78;9.80;;;;;;;3.94;54.77;101490.30;1639631;85;21413;-77
2022/04/13 04:24:23;;;;;;;15.08;9.78;;;;;;;3.94;54.78;101487.33;1669205;85;21378;-78
2022/04/13 04:26:49;;;;;;;14.78;9.78;;;;;;;3.96;54.82;101491.20;1666287;84;21362;-78
2022/04/13 04:29:15;;;;;;;16.73;10.40;;;;;;;3.96;54.88;101489.52;1664681;84;21000;-78
2022/04/13 04:31:50;;;;;;;14.50;9.27;;;;;;;3.99;54.89;101491.28;1679580;84;20963;-77
2022/04/13 04:34:19;;;;;;;17.65;10.13;;;;;;;4.04;54.96;101494.81;1662688;84;21707;-77
2022/04/13 04:36:46;;;;;;;18.25;9.55;;;;;;;4.07;54.96;101492.34;1648828;84;21425;-77
2022/04/13 04:39:12;;;;;;;16.65;10.08;;;;;;;4.12;54.96;101498.84;1672102;84;21416;-77
2022/04/13 04:41:40;;;;;;;17.77;10.40;;;;;;;4.16;54.99;101492.53;1656324;85;20976;-77
2022/04/13 04:44:12;;;;;;;16.77;10.10;;;;;;;4.19;54.97;101500.70;1667268;84;21484;-78
2022/04/13 04:46:36;;;;;;;21.75;12.33;;;;;;;4.22;55.03;101505.89;1665413;84;20921;-78
2022/04/13 04:49:03;;;;;;;26.97;12.60;;;;;;;4.26;55.03;101503.86;1660246;84;28235;-77
2022/04/13 04:51:32;;;;;;;28.07;11.90;;;;;;;4.18;55.06;101483.19;1713419;81;21520;-77
2022/04/13 04:54:03;;;;;;;24.52;12.25;;;;;;;4.33;55.09;101507.02;1713134;81;21561;-77
2022/04/13 04:56:40;;;;;;;24.27;13.18;;;;;;;4.37;55.15;101510.09;1715203;83;20921;-76
2022/04/13 04:59:06;;;;;;;21.80;13.18;;;;;;;4.45;55.17;101506.44;1712146;81;21558;-78
2022/04/13 05:01:32;;;;;;;28.03;13.27;;;;;;;4.56;55.24;101504.98;1711809;81;20906;-78
2022/04/13 05:03:58;;;;;;;19.70;13.20;;;;;;;4.69;55.27;101506.09;1716173;82;21454;-78
2022/04/13 05:06:28;;;;;;;21.00;12.50;;;;;;;4.85;55.35;101503.05;1738348;81;20969;-78
2022/04/13 05:08:55;;;;;;;21.40;11.12;;;;;;;5.08;55.46;101505.68;1707679;81;20910;-78
2022/04/13 05:11:22;;;;;;;19.77;12.47;;;;;;;5.43;55.59;101507.63;1721263;81;21860;-77
2022/04/13 05:13:49;;;;;;;21.07;11.22;;;;;;;5.78;55.64;101504.83;1705023;83;20933;-77
2022/04/13 05:16:16;;;;;;;18.67;11.22;;;;;;;6.13;55.67;101504.19;1671270;84;20993;-77
2022/04/13 05:18:47;;;;;;;16.65;10.75;;;;;;;6.48;55.77;101513.28;1734783;81;21433;-78
2022/04/13 05:21:14;;;;;;;21.33;10.78;;;;;;;6.87;55.81;101506.54;1698384;82;20949;-79
2022/04/13 05:23:44;;;;;;;;;;;;;;;7.28;55.84;101507.45;1737537;81;20976;-78
2022/04/13 05:26:08;;;;;;;17.75;9.73;;;;;;;7.73;55.75;101504.53;1737892;81;20155;-79
2022/04/13 05:28:34;;;;;;;17.07;10.23;;;;;;;8.19;55.98;101504.48;1730280;81;21379;-78
2022/04/13 05:31:00;;;;;;;18.30;10.43;;;;;;;8.62;56.01;101499.22;1737847;81;21638;-78
2022/04/13 05:33:26;;;;;;;17.70;11.17;;;;;;;9.06;56.08;101501.15;1707021;82;20877;-78
2022/04/13 05:35:53;;;;;;;16.57;11.12;;;;;;;9.48;56.11;101500.41;1715189;82;20944;-77
2022/04/13 05:38:19;;;;;;;18.27;11.07;;;;;;;9.90;56.20;101492.28;1708530;82;20953;-79
2022/04/13 05:40:45;;;;;;;17.60;11.37;;;;;;;10.32;56.20;101489.30;1716184;81;127812;-78
2022/04/13 05:43:11;;;;;;;21.02;12.43;;;;;;;10.65;56.13;101489.23;1716145;82;20941;-79
2022/04/13 05:45:37;;;;;;;21.37;11.97;;;;;;;10.87;56.02;101488.31;1699865;82;20927;-79
2022/04/13 05:48:05;;;;;;;21.12;11.88;;;;;;;11.05;56.02;101489.08;1692296;84;20909;-79
2022/04/13 05:50:31;;;;;;;18.75;11.50;;;;;;;11.25;55.97;101498.48;1704144;84;20947;-78
2022/04/13 05:52:58;;;;;;;19.50;11.48;;;;;;;11.46;55.96;101503.10;1673485;84;20931;-78
2022/04/13 05:55:25;;;;;;;18.50;11.30;;;;;;;11.69;55.91;101502.54;1651025;85;20964;-78
2022/04/13 05:57:51;;;;;;;13.85;9.60;;;;;;;11.87;55.85;101501.16;1648581;87;21165;-78
2022/04/13 06:00:18;;;;;;;13.98;9.00;;;;;;;12.06;55.74;101500.98;1681563;84;21333;-78
2022/04/13 06:02:44;;;;;;;12.85;9.15;;;;;;;12.18;55.56;101509.97;1692084;83;20919;-78
2022/04/13 06:05:11;;;;;;;16.30;9.20;;;;;;;12.18;55.54;101507.38;1695538;82;20878;-78
2022/04/13 06:07:49;;;;;;;11.83;8.63;;;;;;;12.33;55.48;101511.14;1714495;82;20920;-76
2022/04/13 06:10:17;;;;;;;12.63;8.30;;;;;;;12.42;55.38;101508.89;1695347;82;20949;-77
2022/04/13 06:12:44;;;;;;;10.50;8.33;;;;;;;12.63;55.38;101512.55;1690376;83;20926;-77
2022/04/13 06:15:12;;;;;;;12.07;8.90;;;;;;;12.76;55.05;101520.64;1691643;83;20902;-77
2022/04/13 06:17:39;;;;;;;10.82;8.63;;;;;;;12.87;55.08;101521.83;1691385;84;21284;-77
2022/04/13 06:20:07;;;;;;;10.45;8.00;;;;;;;13.00;54.89;101520.78;1681423;83;20893;-77
2022/04/13 06:22:39;;;;;;;13.10;8.20;;;;;;;13.05;54.69;101525.48;1699371;83;20937;-78
2022/04/13 06:25:09;;;;;;;11.18;8.00;;;;;;;13.07;54.46;101528.06;1700000;83;20970;-77
2022/04/13 06:27:36;;;;;;;12.53;8.30;;;;;;;13.01;54.29;101516.45;1653227;83;21034;-77
2022/04/13 06:30:04;;;;;;;10.90;7.72;;;;;;;12.93;54.24;101519.16;1678927;83;21128;-77
2022/04/13 06:32:35;;;;;;;14.50;7.95;;;;;;;13.02;54.25;101513.83;1682301;82;21068;-77
2022/04/13 06:35:04;;;;;;;12.18;8.43;;;;;;;13.18;54.08;101510.65;1649839;85;21552;-77
2022/04/13 06:37:30;;;;;;;13.20;8.13;;;;;;;13.33;54.05;101510.90;1666539;83;20889;-77
2022/04/13 06:39:56;;;;;;;11.83;8.40;;;;;;;13.42;53.93;101501.69;1728207;81;20941;-77
2022/04/13 06:42:23;;;;;;;12.55;8.05;;;;;;;13.60;53.84;101497.50;1690019;83;21105;-78
2022/04/13 06:44:52;;;;;;;12.20;8.98;;;;;;;13.85;53.81;101496.27;1677740;83;21108;-77
2022/04/13 06:47:18;;;;;;;8.98;7.53;;;;;;;14.06;53.58;101500.68;1694349;83;20965;-77
2022/04/13 06:49:46;;;;;;;10.72;7.17;;;;;;;14.26;53.50;101501.21;1747702;81;20972;-77
2022/04/13 06:52:13;;;;;;;13.20;8.25;;;;;;;14.44;53.26;101505.28;1712845;83;20980;-77
2022/04/13 06:54:45;;;;;;;10.75;7.80;;;;;;;14.56;53.18;101500.68;1633856;87;21064;-78
2022/04/13 06:57:12;;;;;;;12.73;7.70;;;;;;;14.76;53.15;101504.66;1657590;85;21704;-77
2022/04/13 06:59:38;;;;;;;;;;;;;;;14.87;52.95;101503.57;1652328;85;21448;-77
2022/04/13 07:02:10;;;;;;;9.33;7.58;;;;;;;15.00;52.38;101503.33;1653924;84;25299;-77
2022/04/13 07:04:34;;;;;;;11.22;7.67;;;;;;;15.11;52.66;101510.01;1656502;85;21471;-77
2022/04/13 07:07:01;;;;;;;10.78;7.03;;;;;;;15.29;52.73;101513.12;1680178;83;20905;-77
2022/04/13 07:09:28;;;;;;;18.90;7.92;;;;;;;15.47;52.22;101516.65;1747061;81;20936;-77
2022/04/13 07:11:54;;;;;;;14.70;7.47;;;;;;;15.53;52.31;101521.73;1715419;83;20936;-77
2022/04/13 07:14:20;;;;;;;9.68;7.20;;;;;;;15.68;52.16;101523.14;1712808;81;20972;-77
2022/04/13 07:16:46;;;;;;;10.40;7.75;;;;;;;15.86;52.12;101529.24;1726470;81;20944;-77
2022/04/13 07:19:12;;;;;;;9.50;8.07;;;;;;;16.08;52.04;101519.16;1708363;84;21648;-77
2022/04/13 07:21:39;;;;;;;8.68;6.85;;;;;;;16.45;52.36;101524.30;1737521;81;20956;-77
2022/04/13 07:24:06;;;;;;;8.37;7.53;;;;;;;17.03;52.18;101527.52;1724826;82;21354;-77
2022/04/13 07:26:32;;;;;;;;;;;;;;;17.56;51.49;101525.52;1757863;81;20901;-77
2022/04/13 07:28:59;;;;;;;9.10;6.90;;;;;;;17.92;50.62;101528.77;1762362;81;28083;-78
2022/04/13 07:31:25;;;;;;;9.98;7.50;;;;;;;18.00;50.44;101526.76;1737110;81;20920;-79
2022/04/13 07:33:52;;;;;;;8.90;7.50;;;;;;;17.83;50.27;101525.53;1737493;82;20960;-78
2022/04/13 07:36:19;;;;;;;12.93;11.70;;;;;;;17.56;50.02;101519.84;1764378;81;21820;-77
2022/04/13 07:38:45;;;;;;;9.50;7.90;;;;;;;17.20;49.53;101524.39;1709873;82;21354;-77
2022/04/13 07:41:10;;;;;;;9.30;6.67;;;;;;;16.85;49.75;101518.43;1719917;82;20895;-77
2022/04/13 07:43:36;;;;;;;13.20;8.23;;;;;;;16.70;49.81;101521.45;1737367;82;20880;-77
2022/04/13 07:46:02;;;;;;;10.17;9.10;;;;;;;16.59;49.53;101514.35;1720354;82;26831;-77
2022/04/13 07:48:29;;;;;;;9.30;8.30;;;;;;;16.52;49.48;101521.94;1704077;84;21627;-77
2022/04/13 07:50:57;;;;;;;9.28;7.30;;;;;;;16.58;49.45;101516.55;1700036;82;20901;-77
2022/04/13 07:53:23;;;;;;;7.75;6.92;;;;;;;16.69;49.08;101518.88;1722286;82;20900;-77
2022/04/13 07:55:49;;;;;;;13.50;6.83;;;;;;;16.79;49.05;101515.13;1703578;82;21398;-77
2022/04/13 07:58:16;;;;;;;8.10;6.62;;;;;;;16.86;48.87;101513.61;1701717;84;21306;-78
2022/04/13 08:00:42;;;;;;;;;;;;;;;16.90;48.78;101513.53;1702897;84;21076;-78
2022/04/13 08:03:09;;;;;;;7.67;6.37;;;;;;;16.96;48.31;101522.50;1683551;84;20159;-77
2022/04/13 08:05:35;;;;;;;7.70;6.90;;;;;;;16.92;48.62;101511.73;1685039;84;21139;-77
2022/04/13 08:08:01;;;;;;;8.90;6.17;;;;;;;16.90;48.52;101522.22;1693580;82;21082;-77
2022/04/13 08:10:27;;;;;;;8.30;6.30;;;;;;;16.77;48.17;101518.23;1703404;82;21078;-77
2022/04/13 08:12:53;;;;;;;7.63;6.07;;;;;;;16.73;48.26;101525.30;1698675;82;20901;-78
2022/04/13 08:15:20;;;;;;;8.23;6.47;;;;;;;16.63;47.82;101517.74;1719791;81;20965;-77
2022/04/13 08:17:50;;;;;;;9.00;6.42;;;;;;;16.49;47.47;101518.09;1716323;81;21174;-78
2022/04/13 08:20:16;;;;;;;8.68;5.62;;;;;;;16.38;47.23;101513.16;1645836;86;21847;-77
2022/04/13 08:22:44;;;;;;;8.68;6.35;;;;;;;16.38;46.98;101512.30;1698444;81;21774;-77
2022/04/13 08:25:17;;;;;;;7.97;6.12;;;;;;;16.53;46.91;101506.68;1696205;82;21458;-77
2022/04/13 08:27:44;;;;;;;8.50;6.28;;;;;;;17.07;46.72;101512.61;1709046;82;21069;-79
2022/04/13 08:30:11;;;;;;;;;;;;;;;17.39;46.08;101513.80;1717672;81;21076;-78
2022/04/13 08:32:39;;;;;;;8.03;6.33;;;;;;;17.50;45.79;101503.03;1718872;81;20141;-78
2022/04/13 08:35:05;;;;;;;9.08;6.70;;;;;;;17.47;45.48;101504.43;1719366;81;21152;-77
2022/04/13 08:37:33;;;;;;;6.67;5.42;;;;;;;17.37;45.59;101505.60;1719241;81;21076;-78
2022/04/13 08:39:59;;;;;;;8.93;6.25;;;;;;;17.25;45.65;101504.20;1745977;82;20870;-78
2022/04/13 08:42:49;;;;;;;7.63;5.87;;;;;;;17.15;45.28;101506.72;1709752;81;20921;-80
2022/04/13 08:45:28;;;;;;;6.75;5.08;;;;;;;16.94;45.30;101499.03;1713079;81;20988;-80
2022/04/13 08:48:00;;;;;;;7.45;5.47;;;;;;;16.86;45.18;101497.08;1714786;81;20945;-80
2022/04/13 08:50:29;;;;;;;7.67;5.95;;;;;;;16.86;45.10;101503.16;1724720;81;20902;-78
2022/04/13 08:53:02;;;;;;;6.65;5.33;;;;;;;16.88;44.58;101497.45;1717189;81;21362;-79
2022/04/13 08:55:32;;;;;;;8.15;5.17;;;;;;;16.85;44.81;101505.81;1715138;81;21532;-79
2022/04/13 08:58:28;;;;;;;8.20;5.22;;;;;;;16.71;44.20;101493.58;1714912;81;21096;-78
2022/04/13 09:01:00;;;;;;;6.83;5.15;;;;;;;16.61;44.28;101492.12;1717949;81;44526;-78
2022/04/13 09:03:46;;;;;;;9.73;5.97;;;;;;;16.50;44.03;101489.34;1722540;81;21384;-78
2022/04/13 09:06:13;;;;;;;7.08;5.08;;;;;;;16.40;43.86;101491.78;1720634;81;21408;-78
2022/04/13 09:08:53;;;;;;;8.00;5.60;;;;;;;16.35;43.68;101485.83;1713155;81;20914;-78
2022/04/13 09:11:22;;;;;;;7.35;5.58;;;;;;;16.31;43.81;101490.72;1709283;83;20955;-75
2022/04/13 09:13:50;;;;;;;14.03;5.70;;;;;;;16.26;43.51;101495.19;1691197;83;20921;-75
2022/04/13 09:16:17;;;;;;;6.72;4.97;;;;;;;16.19;43.25;101496.24;1703707;81;20942;-75
2022/04/13 09:18:49;;;;;;;8.93;5.97;;;;;;;16.09;43.17;101489.57;1716497;83;20930;-75
2022/04/13 09:21:20;;;;;;;6.28;5.55;;;;;;;16.02;42.70;101492.77;1719593;82;20921;-75
2022/04/13 09:23:46;;;;;;;7.60;5.33;;;;;;;15.96;42.49;101489.45;1722229;82;20984;-75
2022/04/13 09:26:15;;;;;;;105.57;16.23;;;;;;;15.92;42.66;101489.12;1717941;82;20917;-75
2022/04/13 09:28:41;;;;;;;7.17;5.08;;;;;;;15.91;42.70;101486.95;1697991;82;20897;-74
2022/04/13 09:31:07;;;;;;;9.40;5.43;;;;;;;15.89;42.48;101485.69;1715842;82;20913;-74
2022/04/13 09:33:34;;;;;;;6.97;5.05;;;;;;;15.83;42.02;101490.20;1722596;82;20897;-74
2022/04/13 09:36:00;;;;;;;7.08;5.10;;;;;;;15.79;42.16;101490.71;1722407;82;21414;-74
2022/04/13 09:38:27;;;;;;;5.73;5.13;;;;;;;15.76;42.17;101493.84;1717936;82;20897;-74
2022/04/13 09:40:54;;;;;;;6.45;5.10;;;;;;;15.76;41.94;101480.80;1693618;83;20969;-74
2022/04/13 09:43:23;;;;;;;7.33;4.90;;;;;;;15.70;41.87;101493.53;1693581;83;21426;-74
2022/04/13 09:45:52;;;;;;;6.85;4.83;;;;;;;15.73;41.78;101488.25;1705084;82;21486;-74
2022/04/13 09:48:21;;;;;;;5.80;5.12;;;;;;;15.77;41.80;101490.34;1677256;85;20960;-74
2022/04/13 09:50:51;;;;;;;5.85;4.97;;;;;;;15.78;41.68;101489.45;1663364;85;20954;-74
2022/04/13 09:53:20;;;;;;;6.75;5.55;;;;;;;15.80;41.48;101483.75;1713206;82;20909;-74
2022/04/13 09:56:01;;;;;;;5.97;5.37;;;;;;;15.76;41.45;101490.78;1679802;83;20976;-74
2022/04/13 09:58:30;;;;;;;6.70;5.70;;;;;;;15.75;41.40;101482.55;1706248;82;20934;-75
2022/04/13 10:01:06;;;;;;;11.05;6.60;;;;;;;15.74;41.34;101477.37;1693420;84;20929;-75
2022/04/13 10:03:29;;;;;;;7.05;5.85;;;;;;;15.74;41.38;101483.89;1692640;84;20960;-75
2022/04/13 10:05:56;;;;;;;8.83;6.40;;;;;;;15.81;41.18;101469.81;1693132;83;21525;-75
2022/04/13 10:08:26;;;;;;;7.08;5.83;;;;;;;15.82;41.19;101473.69;1722932;82;20877;-75
2022/04/13 10:10:58;;;;;;;7.78;5.40;;;;;;;15.84;41.22;101474.51;1694333;82;20968;-75
2022/04/13 10:13:37;;;;;;;8.45;5.72;;;;;;;15.88;40.97;101471.37;1693832;84;20977;-75
2022/04/13 10:16:10;;;;;;;6.33;5.10;;;;;;;15.83;40.70;101472.80;1641535;85;20974;-75
2022/04/13 10:18:56;;;;;;;6.10;5.45;;;;;;;15.78;40.71;101463.36;1706638;81;20910;-75
2022/04/13 10:21:44;;;;;;;6.90;5.40;;;;;;;15.79;40.64;101462.02;1704440;81;20889;-74
2022/04/13 10:24:30;;;;;;;6.72;5.20;;;;;;;15.82;40.53;101460.65;1686843;84;20886;-75
2022/04/13 10:27:07;;;;;;;6.20;5.33;;;;;;;15.86;40.54;101457.07;1687724;83;20965;-75
2022/04/13 10:29:36;;;;;;;8.20;6.10;;;;;;;15.88;40.59;101463.11;1705469;81;20983;-75
2022/04/13 10:32:22;;;;;;;6.75;5.60;;;;;;;15.95;40.46;101451.22;1744653;82;21449;-75
2022/04/13 10:34:59;;;;;;;7.70;5.62;;;;;;;16.00;40.50;101459.34;1725653;81;20910;-74
2022/04/13 10:37:24;;;;;;;7.28;6.05;;;;;;;16.02;40.40;101455.39;1686966;81;20929;-74
2022/04/13 10:39:56;;;;;;;7.83;5.78;;;;;;;16.08;40.61;101456.55;1687704;83;20937;-74
2022/04/13 10:42:45;;;;;;;7.65;6.17;;;;;;;16.16;40.40;101446.29;1708302;81;20989;-74
2022/04/13 10:45:31;;;;;;;7.28;6.28;;;;;;;16.18;40.24;101451.47;1709001;81;21406;-74
2022/04/13 10:48:22;;;;;;;10.10;6.22;;;;;;;16.11;39.95;101442.12;1687464;83;20954;-75
2022/04/13 10:51:13;;;;;;;7.33;6.30;;;;;;;16.15;40.13;101445.02;1707747;83;21337;-75
2022/04/13 10:54:03;;;;;;;6.90;5.45;;;;;;;16.19;40.10;101446.21;1686669;81;21351;-75
2022/04/13 10:56:56;;;;;;;8.50;6.53;;;;;;;16.15;39.77;101441.11;1706477;81;20925;-75
2022/04/13 10:59:52;;;;;;;8.20;6.37;;;;;;;16.12;39.75;101444.66;1705001;81;20929;-75
2022/04/13 11:02:57;;;;;;;9.20;6.35;;;;;;;16.14;39.73;101440.70;1702862;81;21514;-75
2022/04/13 11:05:42;;;;;;;7.53;6.30;;;;;;;16.17;39.57;101450.61;1713495;83;21004;-75
2022/04/13 11:08:56;;;;;;;8.03;6.40;;;;;;;16.21;39.62;101447.03;1716071;81;21038;-74
2022/04/13 11:11:43;;;;;;;7.80;6.70;;;;;;;16.22;39.57;101443.97;1704746;82;21052;-74
2022/04/13 11:14:28;;;;;;;8.83;6.42;;;;;;;16.22;39.12;101442.67;1710258;81;21071;-74
2022/04/13 11:17:18;;;;;;;8.55;6.65;;;;;;;16.26;39.17;101436.92;1714743;81;21141;-74
2022/04/13 11:20:23;;;;;;;9.20;6.53;;;;;;;16.30;38.98;101445.94;1718198;81;21084;-74
2022/04/13 11:23:15;;;;;;;9.13;5.72;;;;;;;16.34;39.18;101437.58;1712384;81;21056;-74
2022/04/13 11:26:02;;;;;;;7.10;6.15;;;;;;;16.45;39.34;101434.23;1698412;81;21037;-74
2022/04/13 11:29:09;;;;;;;9.53;7.05;;;;;;;16.53;39.14;101439.66;1718943;81;21084;-74
2022/04/13 11:32:05;;;;;;;8.00;6.05;;;;;;;16.56;39.20;101437.41;1721576;81;21275;-74
2022/04/13 11:34:58;;;;;;;6.65;5.08;;;;;;;16.55;38.83;101436.55;1675327;83;26686;-74
2022/04/13 11:37:44;;;;;;;8.13;5.72;;;;;;;16.55;38.96;101439.16;1675166;83;21067;-74
2022/04/13 11:40:28;;;;;;;8.27;5.57;;;;;;;16.65;38.73;101433.69;1680061;83;21588;-74
2022/04/13 11:43:14;;;;;;;8.65;4.72;;;;;;;16.74;38.55;101432.98;1675453;83;21516;-74
2022/04/13 11:46:00;;;;;;;9.03;5.15;;;;;;;16.77;38.73;101426.81;1683790;83;20969;-74
2022/04/13 11:48:44;;;;;;;5.87;5.08;;;;;;;16.80;38.77;101430.19;1677245;84;21001;-74
2022/04/13 11:51:32;;;;;;;8.15;5.60;;;;;;;16.90;38.69;101426.02;1664347;83;20908;-74
2022/04/13 11:54:16;;;;;;;8.18;5.30;;;;;;;16.93;38.37;101424.62;1649429;84;20975;-74
2022/04/13 11:57:03;;;;;;;6.75;4.95;;;;;;;16.94;38.23;101429.80;1659265;86;20983;-74
2022/04/13 11:59:52;;;;;;;5.87;4.95;;;;;;;16.94;37.83;101412.81;1658425;86;28289;-74
2022/04/13 12:02:37;;;;;;;7.78;5.65;;;;;;;16.95;38.12;101419.75;1659155;86;20924;-74
2022/04/13 12:05:23;;;;;;;5.95;5.35;;;;;;;16.96;37.95;101417.99;1666237;85;20977;-74
2022/04/13 12:08:12;;;;;;;5.33;4.83;;;;;;;16.99;37.87;101416.15;1638661;86;21008;-74